Time;durP1;ratioP1;P1;durP2;ratioP2;P2;SDS_P1;SDS_P2;PMS_P1;PMS_P2;Temp;Humidity;BMP_temperature;BMP_pressure;BME280_temperature;BME280_humidity;BME280_pressure;Samples;Min_cycle;Max_cycle;Signal;HPM_P1;HPM_P2
2023/05/27 00:01:24;;;;;;;9.20;3.90;;;6.00;99.90;;;;;;5126878;27;20402;-87
2023/05/27 00:03:50;;;;;;;9.67;4.10;;;6.10;99.90;;;;;;5127653;27;20765;-88
2023/05/27 00:06:15;;;;;;;10.57;4.00;;;6.40;99.90;;;;;;5109596;27;20398;-87
2023/05/27 00:08:41;;;;;;;11.00;3.90;;;5.90;99.90;;;;;;5109841;27;20419;-87
2023/05/27 00:11:06;;;;;;;9.23;3.80;;;5.80;99.90;;;;;;5127075;27;20467;-87
2023/05/27 00:13:32;;;;;;;12.68;4.43;;;5.70;99.90;;;;;;5109764;27;20889;-86
2023/05/27 00:15:57;;;;;;;10.33;3.97;;;5.70;99.90;;;;;;5109964;27;20415;-87
2023/05/27 00:18:23;;;;;;;8.55;4.00;;;5.60;99.90;;;;;;5109695;27;20398;-87
2023/05/27 00:20:49;;;;;;;13.87;5.70;;;5.50;99.90;;;;;;5126843;27;20398;-87
2023/05/27 00:23:14;;;;;;;11.70;5.40;;;5.50;99.90;;;;;;5126341;27;20892;-87
2023/05/27 00:25:40;;;;;;;9.88;4.30;;;5.50;99.90;;;;;;5128182;27;20410;-87
2023/05/27 00:28:06;;;;;;;10.95;4.32;;;5.60;99.90;;;;;;5126430;27;20410;-87
2023/05/27 00:30:32;;;;;;;10.53;4.70;;;5.60;99.90;;;;;;5109761;27;20908;-87
2023/05/27 00:32:57;;;;;;;12.38;5.15;;;5.50;99.90;;;;;;5109785;27;20403;-86
2023/05/27 00:35:23;;;;;;;12.70;4.75;;;5.50;99.90;;;;;;5126232;27;20395;-86
2023/05/27 00:37:49;;;;;;;11.38;4.55;;;5.60;99.90;;;;;;5109200;27;20403;-87
2023/05/27 00:40:20;;;;;;;12.35;4.47;;;5.40;99.90;;;;;;5108959;27;20759;-87
2023/05/27 00:42:45;;;;;;;10.30;4.03;;;5.30;99.90;;;;;;5126469;27;20490;-87
2023/05/27 00:45:12;;;;;;;9.30;4.20;;;5.70;99.90;;;;;;5127466;27;20944;-87
2023/05/27 00:47:37;;;;;;;10.60;4.50;;;5.20;99.90;;;;;;5126146;27;20430;-87
2023/05/27 00:50:04;;;;;;;11.18;4.70;;;5.20;99.90;;;;;;5108969;27;20761;-87
2023/05/27 00:52:30;;;;;;;6.27;2.87;;;5.20;99.90;;;;;;5126359;27;20874;-86
2023/05/27 00:54:56;;;;;;;8.25;3.03;;;5.40;99.90;;;;;;5126763;27;20783;-86
2023/05/27 00:57:22;;;;;;;8.52;3.55;;;5.60;99.90;;;;;;5125853;27;20430;-87
2023/05/27 00:59:48;;;;;;;9.88;4.25;;;5.30;99.90;;;;;;5126369;27;20495;-87
2023/05/27 01:02:14;;;;;;;9.80;4.13;;;5.50;99.90;;;;;;5125520;27;20399;-87
2023/05/27 01:04:42;;;;;;;7.47;3.70;;;5.40;99.90;;;;;;5125873;27;20406;-87
2023/05/27 01:07:34;;;;;;;9.13;3.50;;;6.00;99.90;;;;;;5108819;27;20515;-87
2023/05/27 01:10:27;;;;;;;8.65;3.70;;;5.20;99.90;;;;;;5126015;27;20506;-86
2023/05/27 01:13:12;;;;;;;9.48;3.42;;;5.10;99.90;;;;;;5126147;27;20431;-86
2023/05/27 01:15:40;;;;;;;12.10;4.38;;;5.00;99.90;;;;;;5126029;27;20761;-87
2023/05/27 01:18:08;;;;;;;9.73;4.55;;;5.00;99.90;;;;;;5108469;27;20517;-86
2023/05/27 01:20:40;;;;;;;16.08;5.78;;;5.00;99.90;;;;;;5126180;27;20402;-87
2023/05/27 01:23:07;;;;;;;11.18;4.65;;;5.00;99.90;;;;;;5125813;27;20441;-86
2023/05/27 01:25:33;;;;;;;11.63;4.18;;;5.00;99.90;;;;;;5108612;27;20459;-86
2023/05/27 01:27:59;;;;;;;11.70;4.88;;;5.10;99.90;;;;;;5125287;27;20765;-86
2023/05/27 01:30:25;;;;;;;12.88;5.20;;;5.10;99.90;;;;;;5108785;27;20391;-88
2023/05/27 01:33:08;;;;;;;12.95;5.28;;;5.10;99.90;;;;;;5125374;27;20414;-86
2023/05/27 01:35:51;;;;;;;11.32;4.40;;;5.10;99.90;;;;;;5125456;27;20905;-87
2023/05/27 01:38:19;;;;;;;12.80;4.45;;;5.10;99.90;;;;;;5108150;28;20434;-86
2023/05/27 01:40:47;;;;;;;16.77;5.65;;;5.10;99.90;;;;;;5124912;27;20399;-86
2023/05/27 01:43:14;;;;;;;12.80;4.97;;;5.10;99.90;;;;;;5125697;27;20761;-87
2023/05/27 01:45:42;;;;;;;15.35;5.00;;;5.20;99.90;;;;;;5124976;27;20399;-87
2023/05/27 01:48:09;;;;;;;15.40;5.18;;;5.20;99.90;;;;;;5107350;28;20391;-86
2023/05/27 01:50:35;;;;;;;13.68;4.88;;;5.20;99.90;;;;;;5125205;27;20390;-86
2023/05/27 01:53:01;;;;;;;19.33;6.05;;;5.20;99.90;;;;;;5108090;28;20395;-87
2023/05/27 01:55:30;;;;;;;12.68;4.57;;;5.20;99.90;;;;;;5125324;28;20398;-86
2023/05/27 01:57:56;;;;;;;12.93;5.00;;;5.20;99.90;;;;;;5124888;28;20789;-87
2023/05/27 02:00:22;;;;;;;12.63;4.80;;;5.20;99.90;;;;;;5125192;28;20823;-87
2023/05/27 02:02:47;;;;;;;14.07;5.65;;;5.10;99.90;;;;;;5124715;28;20474;-86
2023/05/27 02:05:13;;;;;;;6.13;3.38;;;5.10;99.90;;;;;;5125098;28;20477;-87
2023/05/27 02:07:39;;;;;;;6.75;2.83;;;5.10;99.90;;;;;;5125143;28;20430;-87
2023/05/27 02:10:05;;;;;;;9.23;3.23;;;5.10;99.90;;;;;;5108044;28;20403;-86
2023/05/27 02:12:31;;;;;;;7.90;3.45;;;5.10;99.90;;;;;;5125238;28;20471;-86
2023/05/27 02:14:56;;;;;;;9.68;3.95;;;5.10;99.90;;;;;;5124769;28;20442;-87
2023/05/27 02:17:24;;;;;;;13.40;4.17;;;5.10;99.90;;;;;;5125138;28;20496;-87
2023/05/27 02:19:50;;;;;;;12.65;4.35;;;5.10;99.90;;;;;;5124424;28;20397;-87
2023/05/27 02:22:16;;;;;;;11.13;3.75;;;5.10;99.90;;;;;;5108217;28;20398;-87
2023/05/27 02:24:42;;;;;;;10.57;3.90;;;5.10;99.90;;;;;;5124709;28;20617;-86
2023/05/27 02:27:08;;;;;;;13.07;4.77;;;5.10;99.90;;;;;;5124762;28;20438;-87
2023/05/27 02:29:34;;;;;;;12.82;4.50;;;5.10;99.90;;;;;;5125259;28;20477;-87
2023/05/27 02:31:59;;;;;;;11.70;4.15;;;5.10;99.90;;;;;;5124769;28;20414;-87
2023/05/27 02:34:25;;;;;;;11.20;4.10;;;5.10;99.90;;;;;;5124900;28;20905;-86
2023/05/27 02:36:51;;;;;;;14.55;5.00;;;5.00;99.90;;;;;;5124347;28;20433;-86
2023/05/27 02:39:17;;;;;;;18.60;5.50;;;5.10;99.90;;;;;;5124985;28;20455;-87
2023/05/27 02:41:42;;;;;;;14.50;4.83;;;5.10;99.90;;;;;;5124634;28;20597;-87
2023/05/27 02:44:08;;;;;;;16.67;5.18;;;5.20;99.90;;;;;;5124689;28;20410;-86
2023/05/27 02:46:34;;;;;;;11.70;4.43;;;5.10;99.90;;;;;;5124475;28;20398;-87
2023/05/27 02:48:59;;;;;;;14.87;5.60;;;5.10;99.90;;;;;;5125101;28;20478;-87
2023/05/27 02:51:25;;;;;;;10.65;3.92;;;5.10;99.90;;;;;;5126175;28;20443;-86
2023/05/27 02:53:51;;;;;;;11.35;4.20;;;5.10;99.90;;;;;;5107246;28;20430;-87
2023/05/27 02:56:17;;;;;;;12.23;3.90;;;5.10;99.90;;;;;;5107684;28;20410;-87
2023/05/27 02:58:42;;;;;;;13.68;4.90;;;5.10;99.90;;;;;;5106865;27;20950;-87
2023/05/27 03:01:08;;;;;;;12.67;4.27;;;5.10;99.90;;;;;;5111296;27;20407;-87
2023/05/27 03:03:34;;;;;;;11.60;4.22;;;5.10;99.90;;;;;;5128031;27;20390;-86
2023/05/27 03:06:00;;;;;;;13.73;4.28;;;5.10;99.90;;;;;;5110969;27;20406;-87
2023/05/27 03:08:25;;;;;;;14.05;4.97;;;5.00;99.90;;;;;;5128170;27;20394;-87
2023/05/27 03:10:51;;;;;;;12.73;4.27;;;5.00;99.90;;;;;;5128095;27;21063;-87
2023/05/27 03:13:17;;;;;;;11.02;4.15;;;5.00;99.90;;;;;;5128260;27;20402;-86
2023/05/27 03:15:42;;;;;;;8.60;3.92;;;5.00;99.90;;;;;;5110771;27;20402;-85
2023/05/27 03:18:08;;;;;;;10.53;4.13;;;5.10;99.90;;;;;;5128089;27;20762;-87
2023/05/27 03:20:34;;;;;;;13.47;4.40;;;5.10;99.90;;;;;;5110286;27;21220;-87
2023/05/27 03:23:00;;;;;;;17.23;6.25;;;5.10;99.90;;;;;;5128349;27;20399;-87
2023/05/27 03:25:26;;;;;;;13.23;4.88;;;5.10;99.90;;;;;;5110427;27;20996;-86
2023/05/27 03:27:53;;;;;;;14.95;4.28;;;5.10;99.90;;;;;;5127781;27;20474;-87
2023/05/27 03:30:19;;;;;;;12.10;4.57;;;5.20;99.90;;;;;;5127710;27;20403;-86
2023/05/27 03:32:44;;;;;;;12.10;3.97;;;5.20;99.90;;;;;;5127450;27;20383;-87
2023/05/27 03:35:10;;;;;;;11.53;3.87;;;5.30;99.90;;;;;;5111088;27;20448;-87
2023/05/27 03:37:36;;;;;;;12.97;5.07;;;5.40;99.90;;;;;;5127268;27;20423;-87
2023/05/27 03:40:03;;;;;;;11.30;4.72;;;5.50;99.90;;;;;;5110753;27;20391;-86
2023/05/27 03:42:28;;;;;;;12.13;4.50;;;5.60;99.90;;;;;;5110226;27;21011;-87
2023/05/27 03:44:54;;;;;;;11.40;4.15;;;5.50;99.90;;;;;;5127333;27;20927;-87
2023/05/27 03:47:21;;;;;;;13.27;4.70;;;5.60;99.90;;;;;;5127748;27;20476;-87
2023/05/27 03:49:47;;;;;;;15.05;5.55;;;5.80;99.90;;;;;;5127270;27;20407;-87
2023/05/27 03:52:13;;;;;;;15.50;5.57;;;5.90;99.90;;;;;;5127439;27;20399;-87
2023/05/27 03:54:39;;;;;;;21.88;6.53;;;5.90;99.90;;;;;;5109955;27;20414;-87
2023/05/27 03:57:05;;;;;;;23.20;7.03;;;6.10;99.90;;;;;;5127600;27;20843;-86
2023/05/27 03:59:31;;;;;;;21.50;6.78;;;6.20;99.90;;;;;;5109879;27;20777;-87
2023/05/27 04:01:56;;;;;;;21.77;6.30;;;6.40;99.90;;;;;;5110626;27;20407;-86
2023/05/27 04:04:22;;;;;;;18.00;6.03;;;6.50;99.90;;;;;;5127130;27;20889;-86
2023/05/27 04:06:48;;;;;;;12.60;5.05;;;6.50;99.90;;;;;;5127004;27;20465;-87
2023/05/27 04:09:13;;;;;;;17.33;5.97;;;6.60;99.90;;;;;;5127588;27;20441;-87
2023/05/27 04:11:39;;;;;;;16.43;5.47;;;6.80;99.90;;;;;;5125973;27;20410;-87
2023/05/27 04:14:06;;;;;;;13.25;5.45;;;6.90;99.90;;;;;;5127094;27;20916;-87
2023/05/27 04:16:33;;;;;;;11.65;4.70;;;6.70;99.90;;;;;;5126824;27;20766;-87
2023/05/27 04:18:59;;;;;;;15.20;5.15;;;6.80;99.90;;;;;;5126938;27;20413;-87
2023/05/27 04:21:25;;;;;;;12.83;4.90;;;6.80;99.90;;;;;;5126830;27;20405;-87
2023/05/27 04:23:51;;;;;;;13.30;5.07;;;6.80;99.90;;;;;;5126710;27;20490;-87
2023/05/27 04:26:18;;;;;;;14.03;5.80;;;6.90;99.90;;;;;;5109429;27;20663;-86
2023/05/27 04:28:45;;;;;;;16.55;6.20;;;7.10;99.90;;;;;;5126679;27;20395;-87
2023/05/27 04:31:12;;;;;;;19.35;6.38;;;7.00;99.90;;;;;;5126927;27;20452;-87
2023/05/27 04:33:41;;;;;;;20.77;7.13;;;7.30;99.90;;;;;;5126647;27;20431;-87
2023/05/27 04:36:08;;;;;;;16.80;6.63;;;7.10;99.90;;;;;;5109947;27;20472;-87
2023/05/27 04:38:33;;;;;;;16.55;6.18;;;7.20;99.90;;;;;;5108908;27;20427;-86
2023/05/27 04:40:59;;;;;;;19.30;7.10;;;7.20;99.90;;;;;;5109495;27;20726;-87
2023/05/27 04:43:26;;;;;;;17.73;6.13;;;7.30;99.90;;;;;;5109252;27;20507;-87
2023/05/27 04:45:52;;;;;;;21.50;7.33;;;7.30;99.90;;;;;;5127633;27;20395;-87
2023/05/27 04:48:18;;;;;;;19.27;6.93;;;7.40;99.90;;;;;;5126334;27;20410;-87
2023/05/27 04:50:44;;;;;;;16.33;6.97;;;7.50;99.90;;;;;;5109239;27;20407;-86
2023/05/27 04:53:09;;;;;;;26.45;7.90;;;7.50;99.90;;;;;;5109604;27;20765;-87
2023/05/27 04:55:35;;;;;;;20.13;7.30;;;7.70;99.90;;;;;;5125740;27;20426;-87
2023/05/27 04:58:05;;;;;;;19.30;6.85;;;7.80;99.90;;;;;;5126263;27;20475;-86
2023/05/27 05:00:49;;;;;;;18.75;6.68;;;7.70;99.90;;;;;;5108614;27;20399;-87
2023/05/27 05:03:24;;;;;;;21.58;7.65;;;7.80;99.90;;;;;;5126309;27;20928;-87
2023/05/27 05:05:51;;;;;;;20.02;7.40;;;7.90;99.90;;;;;;5126145;27;20403;-86
2023/05/27 05:08:21;;;;;;;21.10;7.88;;;7.90;99.90;;;;;;5108675;27;20904;-87
2023/05/27 05:10:47;;;;;;;22.00;7.75;;;8.00;99.90;;;;;;5108918;27;20403;-87
2023/05/27 05:13:13;;;;;;;18.75;6.90;;;8.00;99.90;;;;;;5108086;27;20395;-87
2023/05/27 05:15:40;;;;;;;20.60;7.60;;;8.20;99.90;;;;;;5125817;27;20961;-86
2023/05/27 05:18:06;;;;;;;18.90;7.32;;;8.40;99.90;;;;;;5108570;27;20418;-87
2023/05/27 05:20:31;;;;;;;20.23;7.38;;;8.60;99.90;;;;;;5125477;27;20992;-86
2023/05/27 05:22:58;;;;;;;20.60;6.90;;;8.70;99.90;;;;;;5108102;27;20420;-87
2023/05/27 05:25:24;;;;;;;21.73;7.37;;;9.00;99.90;;;;;;5108289;27;20410;-86
2023/05/27 05:27:51;;;;;;;16.37;6.60;;;9.10;99.90;;;;;;5125739;27;20394;-86
2023/05/27 05:30:17;;;;;;;24.38;8.32;;;9.20;99.90;;;;;;5124947;27;20407;-87
2023/05/27 05:32:42;;;;;;;21.42;6.90;;;9.20;99.90;;;;;;5109068;27;20459;-87
2023/05/27 05:35:08;;;;;;;19.20;7.78;;;9.40;99.90;;;;;;5108490;27;20413;-88
2023/05/27 05:37:34;;;;;;;18.67;6.73;;;9.40;99.90;;;;;;5108059;27;20426;-88
2023/05/27 05:39:59;;;;;;;19.98;6.65;;;9.40;99.90;;;;;;5108601;27;20407;-88
2023/05/27 05:42:25;;;;;;;19.45;7.28;;;9.50;99.90;;;;;;5108352;28;20456;-87
2023/05/27 05:44:52;;;;;;;20.17;7.07;;;9.60;99.90;;;;;;5125488;27;20399;-86
2023/05/27 05:47:18;;;;;;;19.03;6.77;;;9.70;99.90;;;;;;5108245;28;20405;-88
2023/05/27 05:49:44;;;;;;;20.30;6.80;;;9.80;99.90;;;;;;5108663;28;20403;-88
2023/05/27 05:52:09;;;;;;;18.20;6.25;;;10.00;99.90;;;;;;5108488;27;20481;-88
2023/05/27 05:54:35;;;;;;;15.60;5.70;;;10.20;99.90;;;;;;5108548;28;20414;-89
2023/05/27 05:57:02;;;;;;;17.53;5.70;;;10.50;99.90;;;;;;5108199;28;20430;-88
2023/05/27 05:59:28;;;;;;;18.58;5.38;;;10.60;99.90;;;;;;5108374;28;20414;-88
2023/05/27 06:01:54;;;;;;;16.17;5.47;;;10.80;99.90;;;;;;5108424;28;20390;-87
2023/05/27 06:04:20;;;;;;;17.23;5.53;;;11.00;99.90;;;;;;5125733;28;20497;-88
2023/05/27 06:06:45;;;;;;;17.02;5.25;;;11.20;99.90;;;;;;5126151;28;20818;-88
2023/05/27 06:09:11;;;;;;;17.70;4.78;;;11.30;99.90;;;;;;5107964;28;20760;-88
2023/05/27 06:11:37;;;;;;;16.97;5.70;;;11.40;99.90;;;;;;5125648;28;20455;-88
2023/05/27 06:14:03;;;;;;;14.38;4.60;;;11.60;99.90;;;;;;5107902;28;20390;-88
2023/05/27 06:16:29;;;;;;;15.63;4.35;;;11.90;99.90;;;;;;5125553;28;20434;-88
2023/05/27 06:18:55;;;;;;;15.07;4.03;;;11.90;99.90;;;;;;5125419;28;20429;-88
2023/05/27 06:21:21;;;;;;;18.52;4.32;;;11.90;99.90;;;;;;5108880;28;20846;-88
2023/05/27 06:23:47;;;;;;;13.75;3.90;;;12.20;99.90;;;;;;5107962;28;20473;-90
2023/05/27 06:26:13;;;;;;;15.97;3.83;;;12.30;99.90;;;;;;5107705;28;20762;-88
2023/05/27 06:28:39;;;;;;;15.43;4.35;;;12.20;99.90;;;;;;5108149;28;20777;-88
2023/05/27 06:31:04;;;;;;;16.87;4.37;;;12.40;99.90;;;;;;5107104;28;20403;-88
2023/05/27 06:33:30;;;;;;;16.27;4.18;;;12.40;99.90;;;;;;5107990;27;20403;-90
2023/05/27 06:35:55;;;;;;;13.97;4.03;;;12.50;99.90;;;;;;5111495;27;20401;-88
2023/05/27 06:38:22;;;;;;;13.10;3.65;;;12.50;99.90;;;;;;5128641;27;20422;-87
2023/05/27 06:40:48;;;;;;;17.67;4.13;;;12.70;99.90;;;;;;5111856;27;20438;-89
2023/05/27 06:43:14;;;;;;;15.83;4.03;;;12.90;99.90;;;;;;5111540;27;20900;-89
2023/05/27 06:45:40;;;;;;;15.65;4.82;;;13.20;99.90;;;;;;5128832;27;20505;-88
2023/05/27 06:48:07;;;;;;;14.07;3.47;;;13.30;99.90;;;;;;5111353;27;20430;-89
2023/05/27 06:50:33;;;;;;;15.30;4.07;;;13.40;99.90;;;;;;5111780;27;20402;-88
2023/05/27 06:52:59;;;;;;;17.08;4.00;;;13.60;99.90;;;;;;5111347;27;20402;-89
2023/05/27 06:55:25;;;;;;;17.85;4.50;;;13.50;99.90;;;;;;5111760;27;20390;-89
2023/05/27 06:57:50;;;;;;;15.07;3.63;;;13.50;99.90;;;;;;5111621;27;20913;-90
2023/05/27 07:00:16;;;;;;;15.70;3.95;;;13.60;99.90;;;;;;5111382;27;20906;-88
2023/05/27 07:02:42;;;;;;;13.40;3.83;;;13.60;99.90;;;;;;5111728;27;20953;-88
2023/05/27 07:05:08;;;;;;;15.27;4.20;;;13.70;99.90;;;;;;5111604;27;20442;-89
2023/05/27 07:07:33;;;;;;;16.30;4.05;;;14.10;99.90;;;;;;5111571;27;20401;-87
2023/05/27 07:09:59;;;;;;;15.20;4.03;;;13.90;99.90;;;;;;5110757;27;20410;-89
2023/05/27 07:12:25;;;;;;;16.70;4.00;;;14.20;99.90;;;;;;5111582;27;20399;-89
2023/05/27 07:14:50;;;;;;;14.88;3.90;;;14.40;99.90;;;;;;5110623;27;20399;-88
2023/05/27 07:17:16;;;;;;;13.33;4.17;;;14.30;99.90;;;;;;5128164;27;20770;-89
2023/05/27 07:19:42;;;;;;;12.43;3.92;;;14.30;99.90;;;;;;5111153;27;20487;-89
2023/05/27 07:22:07;;;;;;;17.30;4.33;;;14.50;99.90;;;;;;5110925;27;20414;-89
2023/05/27 07:24:33;;;;;;;14.32;4.22;;;14.60;99.90;;;;;;5111142;27;20410;-89
2023/05/27 07:26:59;;;;;;;15.20;3.93;;;14.80;99.90;;;;;;5110962;27;20981;-90
2023/05/27 07:29:25;;;;;;;11.55;3.70;;;14.80;99.90;;;;;;5128026;27;20391;-89
2023/05/27 07:31:50;;;;;;;14.43;4.60;;;15.00;99.90;;;;;;5110902;27;20402;-88
2023/05/27 07:34:16;;;;;;;16.60;4.60;;;15.00;99.90;;;;;;5111284;27;20409;-89
2023/05/27 07:36:41;;;;;;;14.55;3.83;;;15.10;99.90;;;;;;5110721;27;20838;-89
2023/05/27 07:39:07;;;;;;;14.70;4.13;;;15.00;99.90;;;;;;5110323;27;20395;-89
2023/05/27 07:41:33;;;;;;;14.82;4.07;;;15.20;99.90;;;;;;5110958;27;20499;-90
2023/05/27 07:43:58;;;;;;;14.40;4.30;;;15.50;99.90;;;;;;5110671;27;20983;-88
2023/05/27 07:46:24;;;;;;;14.35;4.00;;;15.60;99.90;;;;;;5126594;27;20403;-88
2023/05/27 07:48:50;;;;;;;15.67;4.23;;;15.40;99.90;;;;;;5109719;27;20395;-89
2023/05/27 07:51:16;;;;;;;12.25;4.03;;;15.50;99.90;;;;;;5110904;27;20810;-89
2023/05/27 07:53:41;;;;;;;16.17;4.57;;;15.80;99.90;;;;;;5110439;27;20398;-89
2023/05/27 07:56:07;;;;;;;16.83;4.33;;;15.90;99.90;;;;;;5110860;27;20494;-89
2023/05/27 07:58:33;;;;;;;16.55;4.32;;;16.10;99.90;;;;;;5110149;27;20454;-89
2023/05/27 08:00:58;;;;;;;14.30;4.20;;;16.10;99.90;;;;;;5110417;27;20497;-89
2023/05/27 08:03:24;;;;;;;14.98;3.90;;;16.20;99.90;;;;;;5127961;27;20442;-89
2023/05/27 08:05:50;;;;;;;14.63;4.80;;;16.30;99.90;;;;;;5110402;27;20880;-89
2023/05/27 08:08:15;;;;;;;14.20;3.77;;;16.40;99.90;;;;;;5110703;27;20391;-89
2023/05/27 08:10:41;;;;;;;15.57;4.03;;;16.40;99.90;;;;;;5110211;27;20487;-88
2023/05/27 08:13:06;;;;;;;15.80;4.10;;;16.40;99.90;;;;;;5127383;27;20391;-89
2023/05/27 08:15:32;;;;;;;12.87;3.70;;;16.50;99.90;;;;;;5110523;27;20968;-89
2023/05/27 08:17:58;;;;;;;16.17;4.47;;;16.70;99.90;;;;;;5110201;27;20774;-89
2023/05/27 08:20:23;;;;;;;16.80;4.50;;;17.00;99.90;;;;;;5110619;27;20485;-89
2023/05/27 08:22:49;;;;;;;14.40;4.22;;;17.00;99.90;;;;;;5110831;27;20395;-88
2023/05/27 08:25:15;;;;;;;18.73;5.27;;;16.90;99.50;;;;;;5110370;27;20395;-87
2023/05/27 08:28:01;;;;;;;16.40;4.95;;;16.70;98.90;;;;;;5109363;27;20399;-89
2023/05/27 08:30:28;;;;;;;16.88;4.93;;;16.80;99.90;;;;;;5110385;27;20406;-89
2023/05/27 08:32:54;;;;;;;15.82;5.03;;;17.00;99.90;;;;;;5109850;27;20474;-89
2023/05/27 08:35:20;;;;;;;15.68;4.47;;;17.50;99.90;;;;;;5110330;27;21020;-89
2023/05/27 08:37:46;;;;;;;15.52;4.72;;;17.30;98.90;;;;;;5110055;27;20545;-90
2023/05/27 08:40:14;;;;;;;15.10;4.40;;;17.20;98.70;;;;;;5127013;27;20422;-88
2023/05/27 08:42:40;;;;;;;15.90;5.03;;;17.30;99.80;;;;;;5110401;27;20395;-90
2023/05/27 08:45:07;;;;;;;13.47;4.10;;;17.50;99.90;;;;;;5109194;27;20935;-90
2023/05/27 08:47:33;;;;;;;15.32;4.50;;;17.70;96.90;;;;;;5127083;27;20493;-90
2023/05/27 08:49:58;;;;;;;14.05;4.53;;;17.80;99.60;;;;;;5110111;27;20491;-89
2023/05/27 08:52:27;;;;;;;18.13;4.40;;;18.10;96.60;;;;;;5127300;27;20440;-89
2023/05/27 08:54:56;;;;;;;16.23;4.95;;;18.00;97.40;;;;;;5109406;27;20446;-88
2023/05/27 08:57:25;;;;;;;14.85;4.68;;;18.10;92.70;;;;;;5126000;27;20427;-88
2023/05/27 08:59:51;;;;;;;13.17;4.20;;;18.20;91.50;;;;;;5109492;27;20636;-89
2023/05/27 09:02:18;;;;;;;15.90;4.32;;;17.90;95.00;;;;;;5109376;27;20452;-90
2023/05/27 09:04:46;;;;;;;14.70;4.53;;;17.90;97.20;;;;;;5110005;27;20387;-89
2023/05/27 09:07:12;;;;;;;15.52;4.93;;;18.30;95.50;;;;;;5109301;27;20390;-91
2023/05/27 09:09:39;;;;;;;14.77;4.47;;;18.20;97.70;;;;;;5109422;27;20414;-90
2023/05/27 09:12:05;;;;;;;17.00;4.90;;;18.50;93.90;;;;;;5109424;27;20399;-88
2023/05/27 09:14:32;;;;;;;13.25;4.50;;;18.30;97.80;;;;;;5109223;27;20395;-90
2023/05/27 09:17:04;;;;;;;14.38;4.47;;;18.30;94.70;;;;;;5126113;27;20434;-88
2023/05/27 09:19:30;;;;;;;12.18;4.65;;;18.20;85.90;;;;;;5126086;27;20398;-89
2023/05/27 09:21:56;;;;;;;14.40;4.68;;;18.10;96.60;;;;;;5126668;27;20414;-91
2023/05/27 09:24:26;;;;;;;14.80;5.07;;;18.30;96.20;;;;;;5108922;27;20402;-88
2023/05/27 09:26:52;;;;;;;15.43;4.85;;;18.50;96.60;;;;;;5126239;27;20440;-88
2023/05/27 09:29:19;;;;;;;15.43;5.13;;;18.90;92.60;;;;;;5126367;27;20948;-89
2023/05/27 09:31:45;;;;;;;17.10;5.35;;;19.10;93.70;;;;;;5109404;27;20745;-89
2023/05/27 09:34:12;;;;;;;14.65;4.60;;;19.30;90.10;;;;;;5126021;27;20395;-89
2023/05/27 09:36:46;;;;;;;16.27;5.20;;;18.90;74.80;;;;;;5108603;27;20831;-88
2023/05/27 09:39:13;;;;;;;11.83;4.40;;;18.80;90.40;;;;;;5108962;27;20411;-89
2023/05/27 09:41:39;;;;;;;14.20;4.57;;;18.80;95.10;;;;;;5108009;27;20399;-89
2023/05/27 09:44:05;;;;;;;14.70;4.78;;;19.00;92.10;;;;;;5108961;28;20427;-89
2023/05/27 09:46:33;;;;;;;16.93;5.87;;;19.20;86.80;;;;;;5108920;27;20498;-89
2023/05/27 09:48:59;;;;;;;16.60;5.10;;;19.40;92.30;;;;;;5108707;28;20395;-88
2023/05/27 09:51:26;;;;;;;16.17;5.10;;;19.60;89.30;;;;;;5126016;27;20382;-89
2023/05/27 09:53:55;;;;;;;17.37;5.60;;;19.70;72.70;;;;;;5108423;27;20387;-89
2023/05/27 09:56:23;;;;;;;12.55;5.05;;;19.80;90.60;;;;;;5108777;28;20791;-88
2023/05/27 09:58:49;;;;;;;14.63;5.20;;;19.70;67.90;;;;;;5125430;28;20427;-89
2023/05/27 10:01:17;;;;;;;14.38;4.72;;;19.80;88.40;;;;;;5109298;28;20412;-90
2023/05/27 10:03:44;;;;;;;14.65;5.22;;;20.00;89.70;;;;;;5108642;28;20399;-89
2023/05/27 10:06:14;;;;;;;17.25;4.95;;;20.30;77.10;;;;;;5125635;28;20930;-89
2023/05/27 10:08:42;;;;;;;13.48;4.65;;;20.40;71.20;;;;;;5126483;27;20810;-89
2023/05/27 10:11:10;;;;;;;17.75;5.43;;;20.60;65.40;;;;;;5129698;27;20398;-90
2023/05/27 10:13:36;;;;;;;13.73;4.60;;;21.30;71.70;;;;;;5113134;27;20402;-90
2023/05/27 10:16:02;;;;;;;14.45;4.88;;;21.10;65.50;;;;;;5112411;27;20398;-89
2023/05/27 10:18:29;;;;;;;14.87;5.53;;;21.40;64.80;;;;;;5112982;27;20425;-91
2023/05/27 10:20:56;;;;;;;14.70;5.45;;;21.30;65.60;;;;;;5112674;27;20459;-90
2023/05/27 10:23:25;;;;;;;12.85;5.30;;;21.50;62.20;;;;;;5131252;27;20398;-90
2023/05/27 10:25:55;;;;;;;10.95;5.40;;;21.70;57.70;;;;;;5115839;27;20400;-89
2023/05/27 10:28:31;;;;;;;14.40;5.57;;;21.60;53.10;;;;;;5115790;27;20484;-90
2023/05/27 10:31:17;;;;;;;14.90;5.30;;;21.60;57.40;;;;;;5116183;27;20420;-90
2023/05/27 10:33:45;;;;;;;15.13;5.68;;;21.80;59.60;;;;;;5115587;27;20421;-90
2023/05/27 10:36:16;;;;;;;16.80;5.60;;;22.20;60.60;;;;;;5115961;27;20454;-90
2023/05/27 10:38:43;;;;;;;12.70;5.17;;;22.50;62.10;;;;;;5116234;27;20420;-90
2023/05/27 10:41:09;;;;;;;13.93;5.80;;;23.10;56.90;;;;;;5132787;27;20484;-89
2023/05/27 10:43:35;;;;;;;13.20;5.53;;;23.40;55.10;;;;;;5116423;27;20990;-90
2023/05/27 10:46:07;;;;;;;13.27;5.15;;;23.80;53.00;;;;;;5114783;27;20794;-90
2023/05/27 10:48:33;;;;;;;15.90;5.80;;;24.00;49.80;;;;;;5115646;27;20449;-91
2023/05/27 10:50:59;;;;;;;13.82;5.40;;;24.50;50.20;;;;;;5132324;27;20405;-91
2023/05/27 10:53:29;;;;;;;14.60;5.72;;;24.60;48.70;;;;;;5115925;27;20411;-91
2023/05/27 10:55:58;;;;;;;11.93;5.10;;;24.80;49.10;;;;;;5115647;27;20405;-90
2023/05/27 10:58:23;;;;;;;13.13;5.78;;;25.00;47.10;;;;;;5114791;27;20805;-91
2023/05/27 11:00:53;;;;;;;14.83;5.33;;;24.90;47.70;;;;;;5132809;27;20404;-90
2023/05/27 11:03:21;;;;;;;12.50;5.63;;;25.20;47.70;;;;;;5114933;27;20403;-88
2023/05/27 11:05:56;;;;;;;12.98;5.28;;;25.30;45.50;;;;;;5132472;27;21006;-89
2023/05/27 11:08:22;;;;;;;15.93;5.50;;;25.20;45.40;;;;;;5132044;27;20397;-90
2023/05/27 11:10:47;;;;;;;13.20;5.70;;;24.90;46.90;;;;;;5132156;27;20385;-89
2023/05/27 11:13:13;;;;;;;14.73;5.50;;;25.00;46.00;;;;;;5114908;27;20389;-90
2023/05/27 11:15:41;;;;;;;11.57;5.35;;;25.20;46.50;;;;;;5115491;27;20405;-90
2023/05/27 11:18:08;;;;;;;11.52;4.97;;;25.40;47.90;;;;;;5115493;27;20839;-91
2023/05/27 11:20:38;;;;;;;13.40;5.40;;;25.70;47.80;;;;;;5114532;27;21387;-89
2023/05/27 11:23:04;;;;;;;12.80;5.03;;;26.10;45.70;;;;;;5131691;27;20894;-90
2023/05/27 11:25:43;;;;;;;12.13;5.63;;;26.10;42.40;;;;;;5111019;27;20394;-90
2023/05/27 11:28:19;;;;;;;13.10;4.87;;;26.00;46.00;;;;;;5111217;27;20475;-90
2023/05/27 11:30:46;;;;;;;12.27;5.67;;;26.20;45.10;;;;;;5111394;27;22572;-91
2023/05/27 11:33:12;;;;;;;12.98;5.15;;;26.60;44.40;;;;;;5111022;27;20486;-88
2023/05/27 11:35:38;;;;;;;11.98;5.50;;;26.50;42.80;;;;;;5111084;27;20433;-90
2023/05/27 11:38:03;;;;;;;13.05;5.10;;;26.80;42.70;;;;;;5110772;27;20419;-90
2023/05/27 11:40:37;;;;;;;13.65;5.43;;;26.80;44.30;;;;;;5128013;27;20399;-90
2023/05/27 11:43:02;;;;;;;10.23;4.75;;;26.70;45.00;;;;;;5110761;27;20407;-88
2023/05/27 11:45:28;;;;;;;13.57;5.33;;;26.60;41.70;;;;;;5110888;27;20409;-91
2023/05/27 11:47:55;;;;;;;11.25;5.10;;;26.50;44.60;;;;;;5111626;27;20398;-91
2023/05/27 11:50:22;;;;;;;13.43;5.30;;;26.80;42.20;;;;;;5110782;27;20387;-90
2023/05/27 11:53:02;;;;;;;11.38;4.97;;;26.90;42.30;;;;;;5110880;27;20398;-91
2023/05/27 11:55:30;;;;;;;13.00;5.13;;;27.10;42.00;;;;;;5127513;27;20417;-89
2023/05/27 11:57:55;;;;;;;10.60;4.82;;;27.30;43.30;;;;;;5127764;27;20513;-89
2023/05/27 12:00:21;;;;;;;9.80;4.37;;;27.70;40.00;;;;;;5110386;27;20497;-90
2023/05/27 12:02:47;;;;;;;13.13;5.30;;;27.80;40.40;;;;;;5111087;27;20799;-91
2023/05/27 12:05:14;;;;;;;12.90;5.43;;;27.90;41.10;;;;;;5111210;27;20876;-91
2023/05/27 12:07:40;;;;;;;12.70;5.07;;;28.10;42.40;;;;;;5110975;27;20753;-91
2023/05/27 12:10:07;;;;;;;11.93;4.90;;;28.30;41.40;;;;;;5110906;27;20405;-91
2023/05/27 12:12:34;;;;;;;12.93;4.90;;;28.20;39.10;;;;;;5110370;27;20766;-90
2023/05/27 12:15:00;;;;;;;12.25;5.05;;;28.10;41.50;;;;;;5110866;27;20395;-91
2023/05/27 12:17:26;;;;;;;11.38;4.82;;;28.40;39.10;;;;;;5110194;27;20846;-90
2023/05/27 12:19:52;;;;;;;12.57;5.03;;;28.50;39.50;;;;;;5110737;27;20440;-90
2023/05/27 12:22:17;;;;;;;11.73;5.05;;;28.70;38.30;;;;;;5110058;27;20414;-90
2023/05/27 12:24:43;;;;;;;11.07;4.50;;;28.80;38.80;;;;;;5110528;27;20455;-91
2023/05/27 12:27:09;;;;;;;12.13;4.80;;;28.90;38.30;;;;;;5110755;27;20803;-90
2023/05/27 12:29:34;;;;;;;10.70;4.60;;;28.90;37.60;;;;;;5110050;27;20486;-91
2023/05/27 12:32:00;;;;;;;12.38;4.72;;;29.20;37.70;;;;;;5109785;27;20482;-89
2023/05/27 12:34:26;;;;;;;10.60;4.43;;;29.20;38.00;;;;;;5109658;27;20413;-90
2023/05/27 12:36:51;;;;;;;12.03;4.70;;;29.40;39.30;;;;;;5110089;27;20455;-91
2023/05/27 12:39:17;;;;;;;11.23;4.50;;;29.50;37.00;;;;;;5109607;27;20807;-89
2023/05/27 12:41:42;;;;;;;12.23;4.90;;;29.60;38.40;;;;;;5109847;27;20395;-89